Flight ASXVIP1

  • Submitted By: Krzysztof H. Blaszkow
  • Departure Airport: Gdansk im. Lecha Walesy (EPGD)
  • Arrival Airport: Bornholm Rønne (EKRN)
  • Aircraft: BE58 (SP-MVL)
  • Flight Time: 01.18.23
  • Date Submitted: 12/13/2016
  • Status: Accepted
Flight Details
Gross Revenue:
(5 load / € 400.00 per unit
€ 2,000.00
Fuel Cost:
(80.7394 fuel used @ 0.45 / unit)
€ 36.33

Additional Log Information:

View Log

[19:34] - Carenado BARON B58 METAL BLUE
[19:34] - Flight ASXVIP1 is ready to depart EPGD with a final destination of EKRN.
[19:34] - Parking Brake Applied
[19:34] - Navigation Lights ON
[19:34] - Beacon Light ON
[19:34] - Instrument Lights ON
[19:34] - Recognition Lights ON
[19:34] - Wing Lights ON
[19:34] - Logo Lights ON
[19:34] - Cabin Lights ON
[19:34] - Boarding
[19:34] - ADF1 - 284.0
[19:34] - ADF2 - 240.0
[19:34] - NAV1 - 116.10
[19:34] - NAV2 - 116.10
[19:34] - COM1 - 122.80
[19:34] - COM2 - 127.90
[19:34] - Transponder - 4531
[19:36] - Taxi Lights ON 0AGL
[19:36] - Parking Brake Released
[19:36] - Pushing Back from the gate
[19:36] - Engine 1 Started
[19:36] - Engine 2 Started
[19:42] - Taxiing to Runway
[19:42] - Transponder - 2000
[19:43] - Taxi Lights OFF 0AGL
[19:43] - Landing Lights ON 0AGL
[19:43] - Strobe Lights ON 0AGL
[19:45] - Taking Off with 5 passengers on board
[19:45] - Take off at 97kts, with a pitch of 7deg and 383lbs of fuel on board
[19:45] - Wind Heading 243 | Wind Speed 8kts | Temperature 0 deg C
[19:45] - METAR Departure: EPGD 131930Z 25009KT 9999 SCT005 BKN013 01/M00 Q1018 R11/290095

[19:45] - Climbing to TOC
[19:46] - Gear up at 1063AGL
[19:48] - AutoPilot Engaged at 3927AGL
[19:52] - TOC reached
[19:52] - Cruise started
[19:55] - NAV2 - 114.20
[20:00] - NAV1 - 114.20
[20:03] - NAV2 - 116.10
[20:03] - NAV2 - 112.00
[20:14] - NAV1 - 112.00
[20:19] - COM1 - 118.40
[20:21] - Transponder - 3774
[20:27] - COM1 - 121.37
[20:28] - COM1 - 118.40
[20:33] - COM1 - 121.37
[20:35] - TOD reached
[20:35] - Descending to destination
[20:35] - NAV1 - 110.30
[20:35] - Landing Shortly
[20:44] - Gear down at 1919AGL
[20:44] - Flaps to position 1 at 1975ft and 131kts
[20:45] - AutoPilot Disengaged at 1207AGL
[20:48] - Landed at -195fpm. With 209lbs of fuel onboard and a pitch angle of 1deg.
[20:48] - Wind Heading 274 | Wind Speed 7kts | Temperature 5 deg C
[20:48] - METAR Arrival: EKRN 132020Z AUTO 28012KT 3900NDV BR OVC007/// 06/05 Q1019

[20:48] - Flaps to position 0
[20:48] - Taxiing to Gate
[20:48] - Landing Lights OFF 3AGL
[20:48] - Taxi Lights ON 3AGL
[20:52] - Parking Brake Applied
[20:52] - Arrived safely at EKRN. We hope you enjoyed your flight!
[20:52] - Strobe Lights OFF 3AGL
[20:52] - Taxi Lights OFF 3AGL
[20:52] - Engine 1 Stopped
[20:52] - Engine 2 Stopped
[20:53] - Carenado BARON B58 METAL BLUE
[20:53] - MaxSim Rate: 1x
[20:53] - SiouxAcars ver: 1.0.1.2

Route Map